If you wish to contribute or participate in the discussions about articles you are invited to join SKYbrary as a registered user

 Actions

La Rochelle-Île de Ré Airport

From SKYbrary Wiki

LFBH
Airport
ICAO: LFBH – IATA: LRH
Summary
Name La Rochelle-Île de Ré Airport
Region Europe
Territory France FR.gif
Location , Poitou-Charentes
Serving La Rochelle
Elevation 22.555 m
74 ft
74 ft22.555 m
Type medium airport
Coordinates 46° 10' 45.12" N, 1° 11' 43.01" W
Runways
Designator Length Width Surface ROPS
10/28 2255 m7,398.294 ft
45 m147.638 ft
ASP /


METAR
Observation LFBH 250200Z AUTO 01009KT CAVOK 13/10 Q1020 NOSIG
Station La Rochelle
Date/Time 25 May 2019 02:00:00
Wind direction 10°
Wind speed 09 kts
Lowest cloud amount clouds and visibility OK
Temperature 13°C
Dew point 10°C
Humidity 82%
QNH 1020 hPa
Weather condition n/a